sensor_id;sensor_type;location;lat;lon;timestamp;pressure;altitude;pressure_sealevel;temperature;humidity
10510;BME280;5303;53.266;10.410;2024-01-27T00:02:23;102550.78;;;5.17;100.00
10510;BME280;5303;53.266;10.410;2024-01-27T00:04:49;102552.44;;;5.15;100.00
10510;BME280;5303;53.266;10.410;2024-01-27T00:07:14;102552.31;;;5.12;100.00
10510;BME280;5303;53.266;10.410;2024-01-27T00:09:39;102567.84;;;5.09;100.00
10510;BME280;5303;53.266;10.410;2024-01-27T00:12:06;102559.03;;;5.07;100.00
10510;BME280;5303;53.266;10.410;2024-01-27T00:14:31;102563.44;;;5.08;100.00
10510;BME280;5303;53.266;10.410;2024-01-27T00:16:57;102567.13;;;4.94;100.00
10510;BME280;5303;53.266;10.410;2024-01-27T00:19:22;102560.25;;;4.96;100.00
10510;BME280;5303;53.266;10.410;2024-01-27T00:21:47;102561.81;;;4.93;100.00
10510;BME280;5303;53.266;10.410;2024-01-27T00:24:13;102565.47;;;4.96;100.00
10510;BME280;5303;53.266;10.410;2024-01-27T00:26:38;102568.09;;;4.96;100.00
10510;BME280;5303;53.266;10.410;2024-01-27T00:29:04;102571.22;;;4.89;100.00
10510;BME280;5303;53.266;10.410;2024-01-27T00:31:29;102573.00;;;4.90;100.00
10510;BME280;5303;53.266;10.410;2024-01-27T00:33:54;102575.50;;;4.87;100.00
10510;BME280;5303;53.266;10.410;2024-01-27T00:36:20;102574.31;;;4.80;100.00
10510;BME280;5303;53.266;10.410;2024-01-27T00:38:45;102580.72;;;4.87;100.00
10510;BME280;5303;53.266;10.410;2024-01-27T00:41:16;102584.22;;;4.87;100.00
10510;BME280;5303;53.266;10.410;2024-01-27T00:43:41;102583.56;;;4.91;100.00
10510;BME280;5303;53.266;10.410;2024-01-27T00:46:06;102580.72;;;4.87;100.00
10510;BME280;5303;53.266;10.410;2024-01-27T00:48:32;102579.44;;;4.79;100.00
10510;BME280;5303;53.266;10.410;2024-01-27T00:50:57;102594.47;;;4.83;100.00
10510;BME280;5303;53.266;10.410;2024-01-27T00:53:22;102601.44;;;4.82;100.00
10510;BME280;5303;53.266;10.410;2024-01-27T00:55:48;102605.75;;;4.82;100.00
10510;BME280;5303;53.266;10.410;2024-01-27T00:58:13;102608.50;;;4.85;100.00
10510;BME280;5303;53.266;10.410;2024-01-27T01:00:38;102610.38;;;4.87;100.00
10510;BME280;5303;53.266;10.410;2024-01-27T01:03:04;102609.72;;;4.91;100.00
10510;BME280;5303;53.266;10.410;2024-01-27T01:05:29;102607.19;;;4.93;100.00
10510;BME280;5303;53.266;10.410;2024-01-27T01:07:54;102612.41;;;4.93;100.00
10510;BME280;5303;53.266;10.410;2024-01-27T01:10:19;102615.16;;;4.96;100.00
10510;BME280;5303;53.266;10.410;2024-01-27T01:12:45;102620.91;;;4.89;100.00
10510;BME280;5303;53.266;10.410;2024-01-27T01:15:10;102622.25;;;4.99;100.00
10510;BME280;5303;53.266;10.410;2024-01-27T01:17:35;102626.53;;;4.97;100.00
10510;BME280;5303;53.266;10.410;2024-01-27T01:20:01;102626.25;;;4.90;100.00
10510;BME280;5303;53.266;10.410;2024-01-27T01:22:26;102622.88;;;4.93;100.00
10510;BME280;5303;53.266;10.410;2024-01-27T01:24:51;102635.31;;;4.99;100.00
10510;BME280;5303;53.266;10.410;2024-01-27T01:27:17;102637.22;;;5.01;100.00
10510;BME280;5303;53.266;10.410;2024-01-27T01:29:44;102637.22;;;5.01;100.00
10510;BME280;5303;53.266;10.410;2024-01-27T01:32:09;102633.59;;;4.99;100.00
10510;BME280;5303;53.266;10.410;2024-01-27T01:34:34;102640.63;;;5.00;100.00
10510;BME280;5303;53.266;10.410;2024-01-27T01:37:00;102637.50;;;5.07;100.00
10510;BME280;5303;53.266;10.410;2024-01-27T01:39:27;102644.38;;;5.05;100.00
10510;BME280;5303;53.266;10.410;2024-01-27T01:41:53;102647.81;;;5.04;100.00
10510;BME280;5303;53.266;10.410;2024-01-27T01:44:18;102656.88;;;5.11;100.00
10510;BME280;5303;53.266;10.410;2024-01-27T01:46:44;102657.66;;;5.10;100.00
10510;BME280;5303;53.266;10.410;2024-01-27T01:49:10;102655.22;;;5.13;100.00
10510;BME280;5303;53.266;10.410;2024-01-27T01:51:35;102663.22;;;5.16;100.00
10510;BME280;5303;53.266;10.410;2024-01-27T01:54:01;102671.66;;;5.10;100.00
10510;BME280;5303;53.266;10.410;2024-01-27T01:56:27;102671.13;;;5.17;100.00
10510;BME280;5303;53.266;10.410;2024-01-27T01:58:54;102674.41;;;5.31;100.00
10510;BME280;5303;53.266;10.410;2024-01-27T02:01:19;102675.34;;;5.32;100.00
10510;BME280;5303;53.266;10.410;2024-01-27T02:03:53;102685.03;;;5.34;100.00
10510;BME280;5303;53.266;10.410;2024-01-27T02:06:18;102680.84;;;5.38;100.00
10510;BME280;5303;53.266;10.410;2024-01-27T02:08:44;102686.31;;;5.42;100.00
10510;BME280;5303;53.266;10.410;2024-01-27T02:11:09;102675.47;;;5.35;100.00
10510;BME280;5303;53.266;10.410;2024-01-27T02:13:34;102686.22;;;5.41;100.00
10510;BME280;5303;53.266;10.410;2024-01-27T02:15:59;102683.47;;;5.38;100.00
10510;BME280;5303;53.266;10.410;2024-01-27T02:18:25;102693.03;;;5.37;100.00
10510;BME280;5303;53.266;10.410;2024-01-27T02:20:50;102694.88;;;5.40;100.00
10510;BME280;5303;53.266;10.410;2024-01-27T02:23:15;102697.88;;;5.47;100.00
10510;BME280;5303;53.266;10.410;2024-01-27T02:25:41;102697.44;;;5.38;100.00
10510;BME280;5303;53.266;10.410;2024-01-27T02:28:06;102703.56;;;5.39;100.00
10510;BME280;5303;53.266;10.410;2024-01-27T02:30:31;102700.28;;;5.43;100.00
10510;BME280;5303;53.266;10.410;2024-01-27T02:32:57;102699.59;;;5.47;100.00
10510;BME280;5303;53.266;10.410;2024-01-27T02:35:23;102702.34;;;5.50;100.00
10510;BME280;5303;53.266;10.410;2024-01-27T02:37:49;102694.38;;;5.47;100.00
10510;BME280;5303;53.266;10.410;2024-01-27T02:40:14;102686.44;;;5.45;100.00
10510;BME280;5303;53.266;10.410;2024-01-27T02:42:40;102690.72;;;5.43;100.00
10510;BME280;5303;53.266;10.410;2024-01-27T02:45:07;102697.69;;;5.43;100.00
10510;BME280;5303;53.266;10.410;2024-01-27T02:47:33;102700.13;;;5.40;100.00
10510;BME280;5303;53.266;10.410;2024-01-27T02:49:58;102713.06;;;5.37;100.00
10510;BME280;5303;53.266;10.410;2024-01-27T02:52:23;102710.31;;;5.34;100.00
10510;BME280;5303;53.266;10.410;2024-01-27T02:54:48;102719.19;;;5.37;100.00
10510;BME280;5303;53.266;10.410;2024-01-27T02:57:14;102722.56;;;5.35;100.00
10510;BME280;5303;53.266;10.410;2024-01-27T02:59:45;102726.16;;;5.37;100.00
10510;BME280;5303;53.266;10.410;2024-01-27T03:02:10;102720.63;;;5.31;100.00
10510;BME280;5303;53.266;10.410;2024-01-27T03:04:35;102727.75;;;5.33;100.00
10510;BME280;5303;53.266;10.410;2024-01-27T03:07:01;102719.50;;;5.43;100.00
10510;BME280;5303;53.266;10.410;2024-01-27T03:09:26;102719.44;;;5.42;100.00
10510;BME280;5303;53.266;10.410;2024-01-27T03:11:51;102718.63;;;5.43;100.00
10510;BME280;5303;53.266;10.410;2024-01-27T03:14:17;102721.06;;;5.40;100.00
10510;BME280;5303;53.266;10.410;2024-01-27T03:16:43;102726.31;;;5.40;100.00
10510;BME280;5303;53.266;10.410;2024-01-27T03:19:09;102716.00;;;5.43;100.00
10510;BME280;5303;53.266;10.410;2024-01-27T03:21:35;102731.72;;;5.43;100.00
10510;BME280;5303;53.266;10.410;2024-01-27T03:24:01;102730.88;;;5.44;100.00
10510;BME280;5303;53.266;10.410;2024-01-27T03:26:27;102731.84;;;5.46;100.00
10510;BME280;5303;53.266;10.410;2024-01-27T03:28:52;102725.72;;;5.45;100.00
10510;BME280;5303;53.266;10.410;2024-01-27T03:31:17;102724.81;;;5.45;100.00
10510;BME280;5303;53.266;10.410;2024-01-27T03:33:42;102724.97;;;5.48;100.00
10510;BME280;5303;53.266;10.410;2024-01-27T03:36:12;102726.59;;;5.46;100.00
10510;BME280;5303;53.266;10.410;2024-01-27T03:38:38;102737.06;;;5.46;100.00
10510;BME280;5303;53.266;10.410;2024-01-27T03:41:04;102731.97;;;5.49;100.00
10510;BME280;5303;53.266;10.410;2024-01-27T03:43:30;102746.66;;;5.45;100.00
10510;BME280;5303;53.266;10.410;2024-01-27T03:45:59;102751.75;;;5.42;100.00
10510;BME280;5303;53.266;10.410;2024-01-27T03:48:24;102752.47;;;5.40;100.00
10510;BME280;5303;53.266;10.410;2024-01-27T03:50:50;102755.72;;;5.52;100.00
10510;BME280;5303;53.266;10.410;2024-01-27T03:53:15;102753.00;;;5.50;100.00
10510;BME280;5303;53.266;10.410;2024-01-27T03:55:41;102759.22;;;5.53;100.00
10510;BME280;5303;53.266;10.410;2024-01-27T03:58:06;102758.16;;;5.49;100.00
10510;BME280;5303;53.266;10.410;2024-01-27T04:00:32;102751.19;;;5.49;100.00
10510;BME280;5303;53.266;10.410;2024-01-27T04:02:58;102758.97;;;5.48;100.00
10510;BME280;5303;53.266;10.410;2024-01-27T04:05:24;102759.81;;;5.47;100.00
10510;BME280;5303;53.266;10.410;2024-01-27T04:07:49;102758.69;;;5.42;100.00
10510;BME280;5303;53.266;10.410;2024-01-27T04:10:16;102756.66;;;5.36;100.00
10510;BME280;5303;53.266;10.410;2024-01-27T04:12:42;102758.00;;;5.28;100.00
10510;BME280;5303;53.266;10.410;2024-01-27T04:15:08;102759.78;;;5.29;100.00
10510;BME280;5303;53.266;10.410;2024-01-27T04:17:33;102767.56;;;5.28;100.00
10510;BME280;5303;53.266;10.410;2024-01-27T04:19:59;102769.22;;;5.26;100.00
10510;BME280;5303;53.266;10.410;2024-01-27T04:22:24;102780.44;;;5.23;100.00
10510;BME280;5303;53.266;10.410;2024-01-27T04:24:49;102777.91;;;5.25;100.00
10510;BME280;5303;53.266;10.410;2024-01-27T04:27:14;102789.41;;;5.28;100.00
10510;BME280;5303;53.266;10.410;2024-01-27T04:29:40;102787.31;;;5.21;100.00
10510;BME280;5303;53.266;10.410;2024-01-27T04:32:07;102795.75;;;5.15;100.00
10510;BME280;5303;53.266;10.410;2024-01-27T04:34:32;102796.25;;;5.08;100.00
10510;BME280;5303;53.266;10.410;2024-01-27T04:36:57;102800.75;;;5.11;100.00
10510;BME280;5303;53.266;10.410;2024-01-27T04:39:22;102800.91;;;5.14;100.00
10510;BME280;5303;53.266;10.410;2024-01-27T04:41:48;102800.00;;;5.13;100.00
10510;BME280;5303;53.266;10.410;2024-01-27T04:44:13;102803.25;;;5.09;100.00
10510;BME280;5303;53.266;10.410;2024-01-27T04:46:38;102800.44;;;5.05;100.00
10510;BME280;5303;53.266;10.410;2024-01-27T04:49:04;102785.97;;;4.95;100.00
10510;BME280;5303;53.266;10.410;2024-01-27T04:51:29;102789.50;;;4.96;100.00
10510;BME280;5303;53.266;10.410;2024-01-27T04:53:54;102788.13;;;4.86;100.00
10510;BME280;5303;53.266;10.410;2024-01-27T04:56:20;102789.91;;;4.87;100.00
10510;BME280;5303;53.266;10.410;2024-01-27T04:58:45;102793.19;;;4.83;100.00
10510;BME280;5303;53.266;10.410;2024-01-27T05:01:10;102789.63;;;4.81;100.00
10510;BME280;5303;53.266;10.410;2024-01-27T05:03:36;102791.81;;;4.73;100.00
10510;BME280;5303;53.266;10.410;2024-01-27T05:06:02;102792.88;;;4.77;100.00
10510;BME280;5303;53.266;10.410;2024-01-27T05:08:27;102799.00;;;4.77;100.00
10510;BME280;5303;53.266;10.410;2024-01-27T05:10:52;102795.56;;;4.78;100.00
10510;BME280;5303;53.266;10.410;2024-01-27T05:13:17;102810.88;;;4.71;100.00
10510;BME280;5303;53.266;10.410;2024-01-27T05:15:43;102802.91;;;4.69;100.00
10510;BME280;5303;53.266;10.410;2024-01-27T05:18:08;102804.81;;;4.72;100.00
10510;BME280;5303;53.266;10.410;2024-01-27T05:20:35;102798.69;;;4.71;100.00
10510;BME280;5303;53.266;10.410;2024-01-27T05:23:00;102816.88;;;4.70;100.00
10510;BME280;5303;53.266;10.410;2024-01-27T05:25:25;102813.22;;;4.66;100.00
10510;BME280;5303;53.266;10.410;2024-01-27T05:27:51;102817.53;;;4.66;100.00
10510;BME280;5303;53.266;10.410;2024-01-27T05:30:16;102814.44;;;4.56;100.00
10510;BME280;5303;53.266;10.410;2024-01-27T05:32:42;102813.63;;;4.57;100.00
10510;BME280;5303;53.266;10.410;2024-01-27T05:35:07;102818.78;;;4.56;100.00
10510;BME280;5303;53.266;10.410;2024-01-27T05:37:33;102828.19;;;4.52;100.00
10510;BME280;5303;53.266;10.410;2024-01-27T05:39:58;102826.38;;;4.51;100.00
10510;BME280;5303;53.266;10.410;2024-01-27T05:42:23;102835.03;;;4.50;100.00
10510;BME280;5303;53.266;10.410;2024-01-27T05:44:49;102839.38;;;4.50;100.00
10510;BME280;5303;53.266;10.410;2024-01-27T05:47:14;102834.03;;;4.48;100.00
10510;BME280;5303;53.266;10.410;2024-01-27T05:49:41;102836.75;;;4.50;100.00
10510;BME280;5303;53.266;10.410;2024-01-27T05:52:06;102848.22;;;4.37;100.00
10510;BME280;5303;53.266;10.410;2024-01-27T05:54:31;102850.22;;;4.41;100.00
10510;BME280;5303;53.266;10.410;2024-01-27T05:56:57;102854.44;;;4.39;100.00
10510;BME280;5303;53.266;10.410;2024-01-27T05:59:24;102860.66;;;4.41;100.00
10510;BME280;5303;53.266;10.410;2024-01-27T06:01:50;102855.59;;;4.44;100.00
10510;BME280;5303;53.266;10.410;2024-01-27T06:04:16;102852.91;;;4.43;100.00
10510;BME280;5303;53.266;10.410;2024-01-27T06:06:41;102842.03;;;4.35;100.00
10510;BME280;5303;53.266;10.410;2024-01-27T06:09:07;102862.28;;;4.39;100.00
10510;BME280;5303;53.266;10.410;2024-01-27T06:11:36;102863.28;;;4.41;100.00
10510;BME280;5303;53.266;10.410;2024-01-27T06:14:02;102864.72;;;4.36;100.00
10510;BME280;5303;53.266;10.410;2024-01-27T06:16:27;102880.25;;;4.33;100.00
10510;BME280;5303;53.266;10.410;2024-01-27T06:18:52;102872.72;;;4.39;100.00
10510;BME280;5303;53.266;10.410;2024-01-27T06:21:20;102888.25;;;4.36;100.00
10510;BME280;5303;53.266;10.410;2024-01-27T06:23:45;102881.06;;;4.32;100.00
10510;BME280;5303;53.266;10.410;2024-01-27T06:26:13;102896.75;;;4.32;100.00
10510;BME280;5303;53.266;10.410;2024-01-27T06:28:38;102895.09;;;4.34;100.00
10510;BME280;5303;53.266;10.410;2024-01-27T06:31:04;102900.31;;;4.34;100.00
10510;BME280;5303;53.266;10.410;2024-01-27T06:33:30;102904.81;;;4.37;100.00
10510;BME280;5303;53.266;10.410;2024-01-27T06:35:55;102883.84;;;4.35;100.00
10510;BME280;5303;53.266;10.410;2024-01-27T06:38:20;102893.31;;;4.33;100.00
10510;BME280;5303;53.266;10.410;2024-01-27T06:40:45;102900.09;;;4.29;100.00
10510;BME280;5303;53.266;10.410;2024-01-27T06:43:12;102898.19;;;4.27;100.00
10510;BME280;5303;53.266;10.410;2024-01-27T06:45:38;102905.78;;;4.22;100.00
10510;BME280;5303;53.266;10.410;2024-01-27T06:48:03;102920.72;;;4.25;100.00
10510;BME280;5303;53.266;10.410;2024-01-27T06:50:29;102922.66;;;4.29;100.00
10510;BME280;5303;53.266;10.410;2024-01-27T06:52:54;102935.03;;;4.31;100.00
10510;BME280;5303;53.266;10.410;2024-01-27T06:55:19;102927.28;;;4.33;100.00
10510;BME280;5303;53.266;10.410;2024-01-27T06:57:45;102927.72;;;4.26;100.00
10510;BME280;5303;53.266;10.410;2024-01-27T07:00:10;102920.03;;;4.13;100.00
10510;BME280;5303;53.266;10.410;2024-01-27T07:02:39;102922.00;;;4.17;100.00
10510;BME280;5303;53.266;10.410;2024-01-27T07:05:05;102925.25;;;4.13;100.00
10510;BME280;5303;53.266;10.410;2024-01-27T07:07:31;102933.16;;;4.14;100.00
10510;BME280;5303;53.266;10.410;2024-01-27T07:09:57;102937.31;;;4.11;100.00
10510;BME280;5303;53.266;10.410;2024-01-27T07:12:23;102945.41;;;4.15;100.00
10510;BME280;5303;53.266;10.410;2024-01-27T07:14:48;102945.78;;;4.07;100.00
10510;BME280;5303;53.266;10.410;2024-01-27T07:17:14;102943.16;;;4.07;100.00
10510;BME280;5303;53.266;10.410;2024-01-27T07:19:39;102934.44;;;4.06;100.00
10510;BME280;5303;53.266;10.410;2024-01-27T07:22:04;102943.53;;;3.98;100.00
10510;BME280;5303;53.266;10.410;2024-01-27T07:24:30;102943.44;;;3.96;100.00
10510;BME280;5303;53.266;10.410;2024-01-27T07:26:55;102949.84;;;4.01;100.00
10510;BME280;5303;53.266;10.410;2024-01-27T07:29:21;102958.41;;;3.84;100.00
10510;BME280;5303;53.266;10.410;2024-01-27T07:31:46;102956.34;;;3.79;100.00
10510;BME280;5303;53.266;10.410;2024-01-27T07:34:12;102963.63;;;3.84;100.00
10510;BME280;5303;53.266;10.410;2024-01-27T07:36:37;102957.16;;;3.92;100.00
10510;BME280;5303;53.266;10.410;2024-01-27T07:39:03;102965.78;;;3.91;100.00
10510;BME280;5303;53.266;10.410;2024-01-27T07:41:30;102969.41;;;3.93;100.00
10510;BME280;5303;53.266;10.410;2024-01-27T07:43:55;102968.03;;;3.85;100.00
10510;BME280;5303;53.266;10.410;2024-01-27T07:46:21;102966.69;;;3.77;100.00
10510;BME280;5303;53.266;10.410;2024-01-27T07:48:51;102964.88;;;3.76;100.00
10510;BME280;5303;53.266;10.410;2024-01-27T07:51:16;102963.97;;;3.75;100.00
10510;BME280;5303;53.266;10.410;2024-01-27T07:53:41;102967.97;;;3.69;100.00
10510;BME280;5303;53.266;10.410;2024-01-27T07:56:07;102974.25;;;3.72;100.00
10510;BME280;5303;53.266;10.410;2024-01-27T07:58:32;102977.13;;;3.77;100.00
10510;BME280;5303;53.266;10.410;2024-01-27T08:00:58;102978.94;;;3.78;100.00
10510;BME280;5303;53.266;10.410;2024-01-27T08:03:23;102976.94;;;3.74;100.00
10510;BME280;5303;53.266;10.410;2024-01-27T08:05:48;102978.03;;;3.63;100.00
10510;BME280;5303;53.266;10.410;2024-01-27T08:08:14;102981.53;;;3.63;100.00
10510;BME280;5303;53.266;10.410;2024-01-27T08:10:39;102987.22;;;3.71;100.00
10510;BME280;5303;53.266;10.410;2024-01-27T08:13:05;102986.31;;;3.70;100.00
10510;BME280;5303;53.266;10.410;2024-01-27T08:15:30;102987.38;;;3.74;100.00
10510;BME280;5303;53.266;10.410;2024-01-27T08:17:55;102999.47;;;3.72;100.00
10510;BME280;5303;53.266;10.410;2024-01-27T08:20:21;102984.88;;;3.61;100.00
10510;BME280;5303;53.266;10.410;2024-01-27T08:22:46;102989.09;;;3.59;100.00
10510;BME280;5303;53.266;10.410;2024-01-27T08:25:15;102995.31;;;3.61;100.00
10510;BME280;5303;53.266;10.410;2024-01-27T08:27:41;103003.22;;;3.62;100.00
10510;BME280;5303;53.266;10.410;2024-01-27T08:30:07;102993.75;;;3.64;100.00
10510;BME280;5303;53.266;10.410;2024-01-27T08:32:33;102991.88;;;3.62;100.00
10510;BME280;5303;53.266;10.410;2024-01-27T08:34:58;102996.56;;;3.67;100.00
10510;BME280;5303;53.266;10.410;2024-01-27T08:37:23;102996.22;;;3.76;100.00
10510;BME280;5303;53.266;10.410;2024-01-27T08:39:48;102998.56;;;3.86;100.00
10510;BME280;5303;53.266;10.410;2024-01-27T08:42:16;103005.13;;;3.94;100.00
10510;BME280;5303;53.266;10.410;2024-01-27T08:44:41;103013.44;;;4.02;100.00
10510;BME280;5303;53.266;10.410;2024-01-27T08:47:06;103005.75;;;4.05;100.00
10510;BME280;5303;53.266;10.410;2024-01-27T08:49:31;103011.72;;;4.02;100.00
10510;BME280;5303;53.266;10.410;2024-01-27T08:51:57;103013.88;;;4.10;100.00
10510;BME280;5303;53.266;10.410;2024-01-27T08:54:22;103022.50;;;4.09;100.00
10510;BME280;5303;53.266;10.410;2024-01-27T08:56:47;103033.34;;;4.00;100.00
10510;BME280;5303;53.266;10.410;2024-01-27T08:59:13;103019.19;;;3.96;100.00
10510;BME280;5303;53.266;10.410;2024-01-27T09:01:38;103032.59;;;4.02;100.00
10510;BME280;5303;53.266;10.410;2024-01-27T09:04:03;103024.69;;;4.01;100.00
10510;BME280;5303;53.266;10.410;2024-01-27T09:06:29;103027.56;;;4.05;100.00
10510;BME280;5303;53.266;10.410;2024-01-27T09:08:54;103031.53;;;4.14;100.00
10510;BME280;5303;53.266;10.410;2024-01-27T09:11:19;103029.91;;;4.16;100.00
10510;BME280;5303;53.266;10.410;2024-01-27T09:13:46;103029.91;;;4.16;100.00
10510;BME280;5303;53.266;10.410;2024-01-27T09:16:14;103028.28;;;4.18;100.00
10510;BME280;5303;53.266;10.410;2024-01-27T09:18:39;103033.41;;;4.16;100.00
10510;BME280;5303;53.266;10.410;2024-01-27T09:21:04;103038.53;;;4.15;100.00
10510;BME280;5303;53.266;10.410;2024-01-27T09:23:30;103030.88;;;4.18;100.00
10510;BME280;5303;53.266;10.410;2024-01-27T09:25:55;103030.28;;;4.22;100.00
10510;BME280;5303;53.266;10.410;2024-01-27T09:28:20;103036.84;;;4.15;100.00
10510;BME280;5303;53.266;10.410;2024-01-27T09:30:46;103035.94;;;4.15;100.00
10510;BME280;5303;53.266;10.410;2024-01-27T09:33:11;103038.53;;;4.15;100.00
10510;BME280;5303;53.266;10.410;2024-01-27T09:35:37;103041.53;;;4.21;100.00
10510;BME280;5303;53.266;10.410;2024-01-27T09:38:02;103042.69;;;4.26;100.00
10510;BME280;5303;53.266;10.410;2024-01-27T09:40:27;103045.03;;;4.36;100.00
10510;BME280;5303;53.266;10.410;2024-01-27T09:42:56;103060.88;;;4.39;100.00
10510;BME280;5303;53.266;10.410;2024-01-27T09:45:23;103046.81;;;4.37;100.00
10510;BME280;5303;53.266;10.410;2024-01-27T09:47:49;103055.47;;;4.36;100.00
10510;BME280;5303;53.266;10.410;2024-01-27T09:50:17;103048.16;;;4.45;100.00
10510;BME280;5303;53.266;10.410;2024-01-27T09:52:43;103056.66;;;4.41;100.00
10510;BME280;5303;53.266;10.410;2024-01-27T09:55:09;103047.19;;;4.43;100.00
10510;BME280;5303;53.266;10.410;2024-01-27T09:57:36;103051.84;;;4.49;100.00
10510;BME280;5303;53.266;10.410;2024-01-27T10:00:04;103048.44;;;4.50;100.00
10510;BME280;5303;53.266;10.410;2024-01-27T10:02:31;103051.47;;;4.57;100.00
10510;BME280;5303;53.266;10.410;2024-01-27T10:04:58;103055.88;;;4.58;100.00
10510;BME280;5303;53.266;10.410;2024-01-27T10:07:24;103062.53;;;4.83;100.00
10510;BME280;5303;53.266;10.410;2024-01-27T10:09:50;103059.31;;;5.03;100.00
10510;BME280;5303;53.266;10.410;2024-01-27T10:12:16;103056.34;;;4.97;100.00
10510;BME280;5303;53.266;10.410;2024-01-27T10:14:43;103059.31;;;5.03;100.00
10510;BME280;5303;53.266;10.410;2024-01-27T10:17:25;103049.91;;;5.07;100.00
10510;BME280;5303;53.266;10.410;2024-01-27T10:22:28;103061.47;;;5.27;100.00
10510;BME280;5303;53.266;10.410;2024-01-27T10:24:53;103056.75;;;5.52;100.00
10510;BME280;5303;53.266;10.410;2024-01-27T10:27:20;103050.91;;;5.41;100.00
10510;BME280;5303;53.266;10.410;2024-01-27T10:29:53;103049.03;;;5.39;100.00
10510;BME280;5303;53.266;10.410;2024-01-27T10:32:19;103055.50;;;5.62;100.00
10510;BME280;5303;53.266;10.410;2024-01-27T10:34:44;103043.47;;;5.49;100.00
10510;BME280;5303;53.266;10.410;2024-01-27T10:37:12;103037.63;;;5.53;100.00
10510;BME280;5303;53.266;10.410;2024-01-27T10:39:38;103043.00;;;5.56;100.00
10510;BME280;5303;53.266;10.410;2024-01-27T10:42:03;103029.31;;;5.62;100.00
10510;BME280;5303;53.266;10.410;2024-01-27T10:44:30;103039.78;;;5.62;100.00
10510;BME280;5303;53.266;10.410;2024-01-27T10:46:56;103036.19;;;5.76;100.00
10510;BME280;5303;53.266;10.410;2024-01-27T10:49:28;103050.81;;;5.89;100.00
10510;BME280;5303;53.266;10.410;2024-01-27T10:51:55;103044.78;;;6.06;100.00
10510;BME280;5303;53.266;10.410;2024-01-27T10:54:25;103046.06;;;6.14;100.00
10510;BME280;5303;53.266;10.410;2024-01-27T10:56:55;103047.41;;;6.06;100.00
10510;BME280;5303;53.266;10.410;2024-01-27T10:59:21;103040.66;;;6.11;100.00
10510;BME280;5303;53.266;10.410;2024-01-27T11:01:48;103044.72;;;6.22;100.00
10510;BME280;5303;53.266;10.410;2024-01-27T11:04:17;103054.84;;;6.32;100.00
10510;BME280;5303;53.266;10.410;2024-01-27T11:06:42;103054.84;;;6.32;100.00
10510;BME280;5303;53.266;10.410;2024-01-27T11:09:10;103050.44;;;6.49;100.00
10510;BME280;5303;53.266;10.410;2024-01-27T11:11:37;103056.13;;;6.41;100.00
10510;BME280;5303;53.266;10.410;2024-01-27T11:14:03;103058.09;;;6.45;100.00
10510;BME280;5303;53.266;10.410;2024-01-27T11:16:28;103062.22;;;6.57;100.00
10510;BME280;5303;53.266;10.410;2024-01-27T11:18:54;103056.97;;;6.57;100.00
10510;BME280;5303;53.266;10.410;2024-01-27T11:21:19;103066.69;;;6.60;100.00
10510;BME280;5303;53.266;10.410;2024-01-27T11:23:45;103060.69;;;6.62;100.00
10510;BME280;5303;53.266;10.410;2024-01-27T11:26:17;103058.16;;;6.64;100.00
10510;BME280;5303;53.266;10.410;2024-01-27T11:28:44;103058.16;;;6.64;100.00
10510;BME280;5303;53.266;10.410;2024-01-27T11:31:09;103060.78;;;6.64;100.00
10510;BME280;5303;53.266;10.410;2024-01-27T11:33:42;103049.84;;;6.73;100.00
10510;BME280;5303;53.266;10.410;2024-01-27T11:36:18;103050.59;;;6.70;100.00
10510;BME280;5303;53.266;10.410;2024-01-27T11:38:44;103048.66;;;6.66;100.00
10510;BME280;5303;53.266;10.410;2024-01-27T11:41:09;103046.31;;;6.72;100.00
10510;BME280;5303;53.266;10.410;2024-01-27T11:43:34;103054.78;;;6.84;100.00
10510;BME280;5303;53.266;10.410;2024-01-27T11:46:00;103060.56;;;6.77;100.00
10510;BME280;5303;53.266;10.410;2024-01-27T11:48:26;103071.56;;;6.70;100.00
10510;BME280;5303;53.266;10.410;2024-01-27T11:51:07;103069.09;;;6.73;100.00
10510;BME280;5303;53.266;10.410;2024-01-27T11:53:34;103067.97;;;6.68;100.00
10510;BME280;5303;53.266;10.410;2024-01-27T11:55:59;103073.69;;;6.59;100.00
10510;BME280;5303;53.266;10.410;2024-01-27T11:58:26;103079.00;;;6.61;100.00
10510;BME280;5303;53.266;10.410;2024-01-27T12:00:52;103084.75;;;6.54;100.00
10510;BME280;5303;53.266;10.410;2024-01-27T12:03:17;103076.75;;;6.69;100.00
10510;BME280;5303;53.266;10.410;2024-01-27T12:05:43;103076.00;;;6.71;100.00
10510;BME280;5303;53.266;10.410;2024-01-27T12:08:08;103066.19;;;6.67;100.00
10510;BME280;5303;53.266;10.410;2024-01-27T12:10:34;103068.06;;;6.70;100.00
10510;BME280;5303;53.266;10.410;2024-01-27T12:13:00;103083.50;;;6.81;100.00
10510;BME280;5303;53.266;10.410;2024-01-27T12:15:25;103073.81;;;6.98;100.00
10510;BME280;5303;53.266;10.410;2024-01-27T12:17:51;103079.44;;;7.06;100.00
10510;BME280;5303;53.266;10.410;2024-01-27T12:20:17;103082.34;;;7.12;100.00
10510;BME280;5303;53.266;10.410;2024-01-27T12:22:43;103080.25;;;7.05;100.00
10510;BME280;5303;53.266;10.410;2024-01-27T12:25:12;103074.41;;;7.10;100.00
10510;BME280;5303;53.266;10.410;2024-01-27T12:27:40;103086.50;;;7.07;100.00
10510;BME280;5303;53.266;10.410;2024-01-27T12:30:06;103089.81;;;7.22;100.00
10510;BME280;5303;53.266;10.410;2024-01-27T12:32:32;103097.31;;;7.32;100.00
10510;BME280;5303;53.266;10.410;2024-01-27T12:34:58;103092.19;;;7.35;100.00
10510;BME280;5303;53.266;10.410;2024-01-27T12:37:25;103082.69;;;7.37;100.00
10510;BME280;5303;53.266;10.410;2024-01-27T12:39:51;103077.56;;;7.40;100.00
10510;BME280;5303;53.266;10.410;2024-01-27T12:42:16;103084.72;;;7.44;100.00
10510;BME280;5303;53.266;10.410;2024-01-27T12:44:42;103086.41;;;7.42;100.00
10510;BME280;5303;53.266;10.410;2024-01-27T12:47:09;103085.03;;;7.50;100.00